createdAt,value
2023-03-04T00:00:28.490Z,44.78
2023-03-04T00:02:55.191Z,42.20
2023-03-04T00:05:21.897Z,45.00
2023-03-04T00:07:48.639Z,41.65
2023-03-04T00:10:15.542Z,44.70
2023-03-04T00:12:42.261Z,50.33
2023-03-04T00:15:09.474Z,47.95
2023-03-04T00:17:36.160Z,47.33
2023-03-04T00:20:02.947Z,46.78
2023-03-04T00:22:29.654Z,46.15
2023-03-04T00:24:56.401Z,47.30
2023-03-04T00:27:23.197Z,44.03
2023-03-04T00:29:50.082Z,45.75
2023-03-04T00:32:18.458Z,47.22
2023-03-04T00:34:45.304Z,42.80
2023-03-04T00:37:12.098Z,45.33
2023-03-04T00:39:38.856Z,44.67
2023-03-04T00:42:05.617Z,48.00
2023-03-04T00:44:32.403Z,44.30
2023-03-04T00:46:59.502Z,44.40
2023-03-04T00:49:26.284Z,46.35
2023-03-04T00:51:53.049Z,46.17
2023-03-04T00:54:19.813Z,47.15
2023-03-04T00:56:46.721Z,41.92
2023-03-04T00:59:13.378Z,44.28
2023-03-04T01:01:40.187Z,43.75
2023-03-04T01:04:06.887Z,46.40
2023-03-04T01:06:33.651Z,45.80
2023-03-04T01:09:00.355Z,42.92
2023-03-04T01:11:27.054Z,42.17
2023-03-04T01:13:53.717Z,47.80
2023-03-04T01:16:20.466Z,43.88
2023-03-04T01:18:47.856Z,45.55
2023-03-04T01:21:14.877Z,43.33
2023-03-04T01:23:41.684Z,45.28
2023-03-04T01:26:08.467Z,41.95
2023-03-04T01:28:36.032Z,43.28
2023-03-04T01:31:03.820Z,49.10
2023-03-04T01:33:31.432Z,43.80
2023-03-04T01:35:58.453Z,43.92
2023-03-04T01:38:25.189Z,48.28
2023-03-04T01:40:52.113Z,45.35
2023-03-04T01:43:25.290Z,44.95
2023-03-04T01:48:23.186Z,42.78
2023-03-04T01:50:49.934Z,47.15
2023-03-04T01:53:27.479Z,44.15
2023-03-04T01:55:59.046Z,43.67
2023-03-04T01:58:28.857Z,43.30
2023-03-04T02:00:55.697Z,45.53
2023-03-04T02:03:22.540Z,38.63
2023-03-04T02:05:50.624Z,43.00
2023-03-04T02:08:18.988Z,42.45
2023-03-04T02:10:45.725Z,40.63
2023-03-04T02:13:12.513Z,42.05
2023-03-04T02:15:39.429Z,39.75
2023-03-04T02:18:23.217Z,36.83
2023-03-04T02:20:49.970Z,38.45
2023-03-04T02:23:39.978Z,41.38
2023-03-04T02:26:09.803Z,39.28
2023-03-04T02:28:36.567Z,41.75
2023-03-04T02:31:03.703Z,41.95
2023-03-04T02:33:30.492Z,36.90
2023-03-04T02:35:57.209Z,37.90
2023-03-04T02:38:23.971Z,37.88
2023-03-04T02:40:51.946Z,37.08
2023-03-04T02:43:18.963Z,36.78
2023-03-04T02:45:50.100Z,37.50
2023-03-04T02:48:20.950Z,35.35
2023-03-04T02:50:49.554Z,39.83
2023-03-04T02:53:16.660Z,38.83
2023-03-04T02:55:43.933Z,38.80
2023-03-04T02:58:11.018Z,35.10
2023-03-04T03:00:37.834Z,37.90
2023-03-04T03:03:04.677Z,39.00
2023-03-04T03:05:32.771Z,34.17
2023-03-04T03:07:59.469Z,37.63
2023-03-04T03:10:26.402Z,33.88
2023-03-04T03:12:53.096Z,38.20
2023-03-04T03:15:20.282Z,37.60
2023-03-04T03:17:47.118Z,34.50
2023-03-04T03:20:14.636Z,38.53
2023-03-04T03:22:41.901Z,36.47
2023-03-04T03:25:09.855Z,34.90
2023-03-04T03:27:36.578Z,41.25
2023-03-04T03:30:03.968Z,40.47
2023-03-04T03:32:30.693Z,40.63
2023-03-04T03:34:57.413Z,34.88
2023-03-04T03:37:24.052Z,39.75
2023-03-04T03:39:50.715Z,34.13
2023-03-04T03:42:17.377Z,35.13
2023-03-04T03:44:44.067Z,36.40
2023-03-04T03:47:10.821Z,34.05
2023-03-04T03:49:37.496Z,40.53
2023-03-04T03:52:04.305Z,36.83
2023-03-04T03:54:30.964Z,38.75
2023-03-04T03:56:57.642Z,34.53
2023-03-04T03:59:24.306Z,41.00
2023-03-04T04:01:51.179Z,40.60
2023-03-04T04:04:18.031Z,37.40
2023-03-04T04:06:44.854Z,41.83
2023-03-04T04:09:11.571Z,38.72
2023-03-04T04:11:38.348Z,42.42
2023-03-04T04:14:05.025Z,40.95
2023-03-04T04:16:31.836Z,40.97
2023-03-04T04:18:58.534Z,36.92
2023-03-04T04:21:25.396Z,40.00
2023-03-04T04:23:52.137Z,40.70
2023-03-04T04:26:18.882Z,46.15
2023-03-04T04:28:45.568Z,42.60
2023-03-04T04:31:12.290Z,39.75
2023-03-04T04:33:38.960Z,42.47
2023-03-04T04:36:05.913Z,41.03
2023-03-04T04:38:32.590Z,39.28
2023-03-04T04:40:59.390Z,45.33
2023-03-04T04:43:26.137Z,41.53
2023-03-04T04:45:53.107Z,42.40
2023-03-04T04:48:19.857Z,44.13
2023-03-04T04:50:46.608Z,43.30
2023-03-04T04:53:14.223Z,40.15
2023-03-04T04:55:40.952Z,42.97
2023-03-04T04:58:07.972Z,37.70
2023-03-04T05:00:34.658Z,41.50
2023-03-04T05:03:01.407Z,40.42
2023-03-04T05:05:28.138Z,43.80
2023-03-04T05:07:54.849Z,41.08
2023-03-04T05:10:21.608Z,40.85
2023-03-04T05:12:48.290Z,47.38
2023-03-04T05:15:15.046Z,42.50
2023-03-04T05:17:41.726Z,45.55
2023-03-04T05:20:09.206Z,46.78
2023-03-04T05:22:35.949Z,42.00
2023-03-04T05:25:03.294Z,44.97
2023-03-04T05:27:29.954Z,45.17
2023-03-04T05:29:59.869Z,43.65
2023-03-04T05:32:26.799Z,45.72
2023-03-04T05:34:55.424Z,52.53
2023-03-04T05:37:22.247Z,43.30
2023-03-04T05:39:49.081Z,53.90
2023-03-04T05:42:16.899Z,52.90
2023-03-04T05:44:43.565Z,49.70
2023-03-04T05:47:10.250Z,53.53
2023-03-04T05:49:44.618Z,50.83
2023-03-04T05:52:11.392Z,51.28
2023-03-04T05:54:38.048Z,59.20
2023-03-04T05:57:04.737Z,59.97
2023-03-04T05:59:31.961Z,61.35
2023-03-04T06:01:58.662Z,56.40
2023-03-04T06:04:25.386Z,61.67
2023-03-04T06:06:52.194Z,56.47
2023-03-04T06:09:21.124Z,60.50
2023-03-04T06:11:47.909Z,49.70
2023-03-04T06:14:14.662Z,56.50
2023-03-04T06:16:41.351Z,55.35
2023-03-04T06:19:18.190Z,62.15
2023-03-04T06:21:44.852Z,58.85
2023-03-04T06:24:11.559Z,53.65
2023-03-04T06:26:38.512Z,53.55
2023-03-04T06:29:06.714Z,62.38
2023-03-04T06:31:34.638Z,56.88
2023-03-04T06:34:05.409Z,58.67
2023-03-04T06:36:32.106Z,57.72
2023-03-04T06:38:58.834Z,58.85
2023-03-04T06:41:25.503Z,57.10
2023-03-04T06:43:54.742Z,56.55
2023-03-04T06:46:21.559Z,56.55
2023-03-04T06:48:48.231Z,69.65
2023-03-04T06:51:15.311Z,58.72
2023-03-04T06:53:44.155Z,57.35
2023-03-04T06:56:11.675Z,52.65
2023-03-04T06:58:38.653Z,48.60
2023-03-04T07:01:13.512Z,53.72
2023-03-04T07:03:40.379Z,57.42
2023-03-04T07:06:07.296Z,46.72
2023-03-04T07:08:33.979Z,46.67
2023-03-04T07:11:00.766Z,45.55
2023-03-04T07:13:27.449Z,46.22
2023-03-04T07:15:54.415Z,42.67
2023-03-04T07:18:21.103Z,44.78
2023-03-04T07:20:47.780Z,45.75
2023-03-04T07:23:14.439Z,45.80
2023-03-04T07:25:41.141Z,41.28
2023-03-04T07:28:07.822Z,41.78
2023-03-04T07:30:34.569Z,46.22
2023-03-04T07:33:01.383Z,39.08
2023-03-04T07:35:28.144Z,43.88
2023-03-04T07:37:54.857Z,43.28
2023-03-04T07:40:21.600Z,40.47
2023-03-04T07:42:57.362Z,41.50
2023-03-04T07:45:24.793Z,37.00
2023-03-04T07:47:51.727Z,39.85
2023-03-04T07:50:18.729Z,34.53
2023-03-04T07:52:47.304Z,38.28
2023-03-04T07:55:15.571Z,39.88
2023-03-04T07:57:43.630Z,33.03
2023-03-04T08:00:11.840Z,35.35
2023-03-04T08:02:38.657Z,39.97
2023-03-04T08:05:05.880Z,38.20
2023-03-04T08:07:32.744Z,34.28
2023-03-04T08:09:59.523Z,39.15
2023-03-04T08:12:26.592Z,41.92
2023-03-04T08:14:53.206Z,38.10
2023-03-04T08:17:23.322Z,37.70
2023-03-04T08:19:51.085Z,36.45
2023-03-04T08:22:17.823Z,36.85
2023-03-04T08:24:45.702Z,35.90
2023-03-04T08:27:20.213Z,39.60
2023-03-04T08:29:46.863Z,40.78
2023-03-04T08:32:13.906Z,36.40
2023-03-04T08:34:41.108Z,36.08
2023-03-04T08:37:08.106Z,40.63
2023-03-04T08:42:11.402Z,37.17
2023-03-04T08:44:38.130Z,37.53
2023-03-04T08:47:04.891Z,36.67
2023-03-04T08:49:31.712Z,40.85
2023-03-04T08:51:58.447Z,40.22
2023-03-04T08:54:25.170Z,41.85
2023-03-04T08:56:52.119Z,42.33
2023-03-04T08:59:18.896Z,41.58
2023-03-04T09:01:46.709Z,39.53
2023-03-04T09:04:13.465Z,36.25
2023-03-04T09:06:40.279Z,39.40
2023-03-04T09:09:07.116Z,39.30
2023-03-04T09:11:34.348Z,39.40
2023-03-04T09:14:03.133Z,37.70
2023-03-04T09:16:29.910Z,35.70
2023-03-04T09:18:57.635Z,37.30
2023-03-04T09:21:26.060Z,39.40
2023-03-04T09:23:53.018Z,36.55
2023-03-04T09:26:22.662Z,38.80
2023-03-04T09:28:55.102Z,38.75
2023-03-04T09:31:22.106Z,41.10
2023-03-04T09:33:49.335Z,39.08
2023-03-04T09:36:16.583Z,36.72
2023-03-04T09:38:43.539Z,36.40
2023-03-04T09:41:23.949Z,34.60
2023-03-04T09:43:51.034Z,33.67
2023-03-04T09:46:28.974Z,31.95
2023-03-04T09:48:56.098Z,30.08
2023-03-04T09:51:42.356Z,33.25
2023-03-04T09:54:15.795Z,37.38
2023-03-04T09:56:42.866Z,31.70
2023-03-04T09:59:16.022Z,34.08
2023-03-04T10:04:14.192Z,32.03
2023-03-04T10:06:41.941Z,29.80
2023-03-04T10:09:14.743Z,31.45
2023-03-04T10:12:03.331Z,27.05
2023-03-04T10:14:40.717Z,25.75
2023-03-04T10:17:09.669Z,25.85
2023-03-04T10:19:58.879Z,28.98
2023-03-04T10:22:47.444Z,25.33
2023-03-04T10:25:35.126Z,28.73
2023-03-04T10:28:11.234Z,26.75
2023-03-04T10:31:02.824Z,26.52
2023-03-04T10:33:31.800Z,28.88
2023-03-04T10:35:58.483Z,26.42
2023-03-04T10:38:25.218Z,27.60
2023-03-04T10:40:51.922Z,28.52
2023-03-04T10:43:19.885Z,24.75
2023-03-04T10:45:47.241Z,25.05
2023-03-04T10:48:25.029Z,27.95
2023-03-04T10:50:51.754Z,29.60
2023-03-04T10:53:25.953Z,31.98
2023-03-04T10:55:52.821Z,31.23
2023-03-04T10:58:19.687Z,33.17
2023-03-04T11:01:00.288Z,27.40
2023-03-04T11:03:35.984Z,28.58
2023-03-04T11:06:22.734Z,33.22
2023-03-04T11:08:57.516Z,30.63
2023-03-04T11:11:47.842Z,29.27
2023-03-04T11:14:29.716Z,32.08
2023-03-04T11:17:01.971Z,33.47
2023-03-04T11:19:36.097Z,35.90
2023-03-04T11:22:02.877Z,35.25
2023-03-04T11:24:31.024Z,34.35
2023-03-04T11:27:20.162Z,38.47
2023-03-04T11:29:49.381Z,33.25
2023-03-04T11:32:21.523Z,36.28
2023-03-04T11:34:57.456Z,32.53
2023-03-04T11:37:36.780Z,35.72
2023-03-04T11:40:24.168Z,31.98
2023-03-04T11:42:50.795Z,35.67
2023-03-04T11:45:29.565Z,34.92
2023-03-04T11:48:13.256Z,37.00
2023-03-04T11:50:49.993Z,36.25
2023-03-04T11:53:45.326Z,34.65
2023-03-04T11:56:14.860Z,35.85
2023-03-04T11:59:04.692Z,39.78
2023-03-04T12:01:50.117Z,41.20
2023-03-04T12:04:23.165Z,37.25
2023-03-04T12:09:33.000Z,39.13
2023-03-04T12:12:51.039Z,41.78
2023-03-04T12:15:29.830Z,40.55
2023-03-04T12:18:10.443Z,37.70
2023-03-04T12:20:43.046Z,37.22
2023-03-04T12:23:16.153Z,41.97
2023-03-04T12:28:27.885Z,43.47
2023-03-04T12:31:21.073Z,45.13
2023-03-04T12:34:21.356Z,44.85
2023-03-04T12:37:13.171Z,42.72
2023-03-04T12:40:06.861Z,41.70
2023-03-04T12:45:30.836Z,43.65
2023-03-04T12:48:14.769Z,49.20
2023-03-04T12:50:51.621Z,43.80
2023-03-04T12:53:44.376Z,48.55
2023-03-04T12:56:27.428Z,46.03
2023-03-04T12:58:54.496Z,52.53
2023-03-04T13:01:28.687Z,46.53
2023-03-04T13:03:58.670Z,49.03
2023-03-04T13:06:54.942Z,44.13
2023-03-04T13:09:29.238Z,46.65
2023-03-04T13:12:05.631Z,48.50
2023-03-04T13:14:33.563Z,47.53
2023-03-04T13:17:37.251Z,44.30
2023-03-04T13:20:30.573Z,46.22
2023-03-04T13:23:00.475Z,42.50
2023-03-04T13:25:31.988Z,51.38
2023-03-04T13:28:15.590Z,46.38
2023-03-04T13:30:43.359Z,41.00
2023-03-04T13:33:10.728Z,46.55
2023-03-04T13:35:51.346Z,42.03
2023-03-04T13:38:27.229Z,48.28
2023-03-04T13:41:20.262Z,43.47
2023-03-04T13:43:52.952Z,37.67
2023-03-04T13:46:19.797Z,39.30
2023-03-04T13:48:49.775Z,34.92
2023-03-04T13:51:37.320Z,37.60
2023-03-04T13:54:19.591Z,38.58
2023-03-04T13:57:02.763Z,37.00
2023-03-04T13:59:35.037Z,32.97
2023-03-04T14:02:17.262Z,31.73
2023-03-04T14:04:45.963Z,32.70
2023-03-04T14:07:39.757Z,32.92
2023-03-04T14:10:12.630Z,30.45
2023-03-04T14:12:56.344Z,35.50
2023-03-04T14:15:27.581Z,34.38
2023-03-04T14:17:58.896Z,34.13
2023-03-04T14:20:39.679Z,34.42
2023-03-04T14:23:35.543Z,38.38
2023-03-04T14:26:15.338Z,37.70
2023-03-04T14:28:50.155Z,41.55
2023-03-04T14:31:21.694Z,38.78
2023-03-04T14:33:59.844Z,36.55
2023-03-04T14:36:26.774Z,37.67
2023-03-04T14:38:59.025Z,42.15
2023-03-04T14:41:30.539Z,41.73
2023-03-04T14:44:25.317Z,41.58
2023-03-04T14:47:06.973Z,35.78
2023-03-04T14:49:36.624Z,43.92
2023-03-04T14:52:04.547Z,39.97
2023-03-04T14:54:36.761Z,38.28
2023-03-04T14:57:35.969Z,39.10
2023-03-04T15:00:27.141Z,34.78
2023-03-04T15:02:59.527Z,35.00
2023-03-04T15:05:27.702Z,41.38
2023-03-04T15:08:01.850Z,39.65
2023-03-04T15:10:36.645Z,41.92
2023-03-04T15:13:06.563Z,40.05
2023-03-04T15:15:44.177Z,38.67
2023-03-04T15:18:16.910Z,35.65
2023-03-04T15:20:51.961Z,39.80
2023-03-04T15:23:18.933Z,36.25
2023-03-04T15:25:45.652Z,41.53
2023-03-04T15:28:18.291Z,36.90
2023-03-04T15:30:45.333Z,45.22
2023-03-04T15:33:12.973Z,46.03
2023-03-04T15:35:40.076Z,40.30
2023-03-04T15:38:07.435Z,39.60
2023-03-04T15:40:39.278Z,45.85
2023-03-04T15:43:06.750Z,36.78
2023-03-04T15:45:36.965Z,39.63
2023-03-04T15:48:07.957Z,33.65
2023-03-04T15:50:39.648Z,37.95
2023-03-04T15:53:09.218Z,37.10
2023-03-04T15:55:35.892Z,40.05
2023-03-04T15:58:02.747Z,40.42
2023-03-04T16:00:30.913Z,43.08
2023-03-04T16:02:58.087Z,38.22
2023-03-04T16:05:24.840Z,34.90
2023-03-04T16:07:51.863Z,37.33
2023-03-04T16:10:23.143Z,34.95
2023-03-04T16:12:56.328Z,38.00
2023-03-04T16:17:51.405Z,28.88
2023-03-04T16:20:23.746Z,33.55
2023-03-04T16:22:52.865Z,36.72
2023-03-04T16:25:19.683Z,35.35
2023-03-04T16:27:47.773Z,33.42
2023-03-04T16:30:20.229Z,34.67
2023-03-04T16:32:47.155Z,38.42
2023-03-04T16:35:14.663Z,33.90
2023-03-04T16:37:44.722Z,38.45
2023-03-04T16:40:14.486Z,37.30
2023-03-04T16:42:41.749Z,36.17
2023-03-04T16:45:19.302Z,36.72
2023-03-04T16:47:46.406Z,41.92
2023-03-04T16:50:18.404Z,37.78
2023-03-04T16:52:45.996Z,34.65
2023-03-04T16:55:25.751Z,34.78
2023-03-04T16:57:54.128Z,35.33
2023-03-04T17:00:23.158Z,41.38
2023-03-04T17:03:00.510Z,42.13
2023-03-04T17:05:29.476Z,37.42
2023-03-04T17:07:56.370Z,35.83
2023-03-04T17:10:23.671Z,43.03
2023-03-04T17:12:51.050Z,37.38
2023-03-04T17:15:18.070Z,35.78
2023-03-04T17:17:44.915Z,33.00
2023-03-04T17:20:14.405Z,39.28
2023-03-04T17:22:41.385Z,35.30
2023-03-04T17:25:08.559Z,34.83
2023-03-04T17:27:35.686Z,40.78
2023-03-04T17:30:03.535Z,46.63
2023-03-04T17:32:32.716Z,54.63
2023-03-04T17:34:59.961Z,43.28
2023-03-04T17:37:27.842Z,38.78
2023-03-04T17:39:54.560Z,38.30
2023-03-04T17:42:21.432Z,40.67
2023-03-04T17:44:48.328Z,39.20
2023-03-04T17:47:16.088Z,36.88
2023-03-04T17:49:43.142Z,41.22
2023-03-04T17:52:10.948Z,43.53
2023-03-04T17:54:38.112Z,41.53
2023-03-04T17:57:05.175Z,41.67
2023-03-04T17:59:31.995Z,34.55
2023-03-04T18:01:58.851Z,38.65
2023-03-04T18:04:27.614Z,39.60
2023-03-04T18:06:54.655Z,35.60
2023-03-04T18:09:24.085Z,34.90
2023-03-04T18:11:54.171Z,39.00
2023-03-04T18:14:22.182Z,40.10
2023-03-04T18:16:48.876Z,38.20
2023-03-04T18:19:18.663Z,41.95
2023-03-04T18:21:46.618Z,42.78
2023-03-04T18:24:14.328Z,40.13
2023-03-04T18:26:41.583Z,39.38
2023-03-04T18:29:08.533Z,44.67
2023-03-04T18:31:37.085Z,56.65
2023-03-04T18:34:04.923Z,63.08
2023-03-04T18:36:31.960Z,50.85
2023-03-04T18:39:07.607Z,44.33
2023-03-04T18:41:34.537Z,40.85
2023-03-04T18:44:01.424Z,43.55
2023-03-04T18:46:35.082Z,47.40
2023-03-04T18:49:08.885Z,44.85
2023-03-04T18:51:37.893Z,40.13
2023-03-04T18:54:27.514Z,49.30
2023-03-04T18:56:58.046Z,51.88
2023-03-04T18:59:31.523Z,45.38
2023-03-04T19:01:58.494Z,44.33
2023-03-04T19:04:26.467Z,43.42
2023-03-04T19:06:53.533Z,39.05
2023-03-04T19:09:20.357Z,41.55
2023-03-04T19:11:47.145Z,41.47
2023-03-04T19:14:13.939Z,43.90
2023-03-04T19:16:40.843Z,40.92
2023-03-04T19:19:07.656Z,47.78
2023-03-04T19:21:38.372Z,43.10
2023-03-04T19:24:05.691Z,42.15
2023-03-04T19:26:32.452Z,38.83
2023-03-04T19:28:59.165Z,42.92
2023-03-04T19:31:25.942Z,43.25
2023-03-04T19:33:52.621Z,41.95
2023-03-04T19:36:19.308Z,41.70
2023-03-04T19:38:46.173Z,41.22
2023-03-04T19:41:15.102Z,40.63
2023-03-04T19:43:41.976Z,36.85
2023-03-04T19:46:09.614Z,38.95
2023-03-04T19:48:37.236Z,41.53
2023-03-04T19:51:05.187Z,39.50
2023-03-04T19:53:34.730Z,43.08
2023-03-04T19:56:01.724Z,37.80
2023-03-04T19:58:28.476Z,40.83
2023-03-04T20:00:56.333Z,43.08
2023-03-04T20:03:24.140Z,40.90
2023-03-04T20:05:50.847Z,39.03
2023-03-04T20:08:17.519Z,43.33
2023-03-04T20:10:44.260Z,34.97
2023-03-04T20:13:10.953Z,38.13
2023-03-04T20:15:37.723Z,38.15
2023-03-04T20:18:04.607Z,41.53
2023-03-04T20:20:31.274Z,40.60
2023-03-04T20:22:58.260Z,49.30
2023-03-04T20:25:25.313Z,43.95
2023-03-04T20:27:52.010Z,42.42
2023-03-04T20:30:19.016Z,37.72
2023-03-04T20:32:45.852Z,41.65
2023-03-04T20:35:15.108Z,37.42
2023-03-04T20:37:42.413Z,41.63
2023-03-04T20:40:13.647Z,39.83
2023-03-04T20:42:40.418Z,35.42
2023-03-04T20:45:07.830Z,44.20
2023-03-04T20:47:34.827Z,40.20
2023-03-04T20:50:01.540Z,35.15
2023-03-04T20:52:28.241Z,35.95
2023-03-04T20:54:54.957Z,36.95
2023-03-04T20:57:21.905Z,37.25
2023-03-04T20:59:49.078Z,37.10
2023-03-04T21:02:17.193Z,39.60
2023-03-04T21:04:44.059Z,40.08
2023-03-04T21:07:12.317Z,38.63
2023-03-04T21:09:38.983Z,37.10
2023-03-04T21:12:05.905Z,35.28
2023-03-04T21:14:32.737Z,39.78
2023-03-04T21:17:03.012Z,37.90
2023-03-04T21:19:32.446Z,42.40
2023-03-04T21:22:01.804Z,36.80
2023-03-04T21:24:30.903Z,35.38
2023-03-04T21:26:58.250Z,34.65
2023-03-04T21:29:28.186Z,34.38
2023-03-04T21:32:22.411Z,41.70
2023-03-04T21:34:52.077Z,37.97
2023-03-04T21:37:22.216Z,38.42
2023-03-04T21:39:49.043Z,36.47
2023-03-04T21:42:15.882Z,36.00
2023-03-04T21:44:49.500Z,35.35
2023-03-04T21:47:18.023Z,35.13
2023-03-04T21:49:44.838Z,33.08
2023-03-04T21:52:11.653Z,30.50
2023-03-04T21:54:38.322Z,39.70
2023-03-04T21:57:05.046Z,34.33
2023-03-04T21:59:31.910Z,38.75
2023-03-04T22:01:58.771Z,34.40
2023-03-04T22:04:25.942Z,34.45
2023-03-04T22:06:52.684Z,38.53
2023-03-04T22:09:19.354Z,36.60
2023-03-04T22:11:46.164Z,38.42
2023-03-04T22:14:13.201Z,34.22
2023-03-04T22:16:54.130Z,37.45
2023-03-04T22:19:25.831Z,34.88
2023-03-04T22:21:53.133Z,34.45
2023-03-04T22:24:20.582Z,33.88
2023-03-04T22:26:47.346Z,34.42
2023-03-04T22:29:14.106Z,38.35
2023-03-04T22:31:40.849Z,35.38
2023-03-04T22:34:12.778Z,39.72
2023-03-04T22:36:41.895Z,36.90
2023-03-04T22:39:10.321Z,33.85
2023-03-04T22:41:37.401Z,44.75
2023-03-04T22:44:06.316Z,36.28
2023-03-04T22:46:34.390Z,40.28
2023-03-04T22:49:04.936Z,38.75
2023-03-04T22:51:32.117Z,40.80
2023-03-04T22:53:58.817Z,36.47
2023-03-04T22:56:25.551Z,35.53
2023-03-04T22:58:52.274Z,33.58
2023-03-04T23:01:20.069Z,35.17
2023-03-04T23:03:48.300Z,38.85
2023-03-04T23:06:18.798Z,40.35
2023-03-04T23:08:47.743Z,35.67
2023-03-04T23:11:17.698Z,36.92
2023-03-04T23:13:44.642Z,32.95
2023-03-04T23:16:12.039Z,40.05
2023-03-04T23:18:39.927Z,37.70
2023-03-04T23:21:11.768Z,35.28
2023-03-04T23:23:39.225Z,32.88
2023-03-04T23:26:06.795Z,39.95
2023-03-04T23:28:33.451Z,38.08
2023-03-04T23:31:05.023Z,41.63
2023-03-04T23:33:32.878Z,40.13
2023-03-04T23:35:59.573Z,41.40
2023-03-04T23:38:26.296Z,45.78
2023-03-04T23:40:53.002Z,37.03
2023-03-04T23:43:19.756Z,35.30
2023-03-04T23:45:46.378Z,38.40
2023-03-04T23:48:13.170Z,38.88
2023-03-04T23:50:49.797Z,40.78
2023-03-04T23:53:18.641Z,37.38
2023-03-04T23:55:45.711Z,35.15
2023-03-04T23:58:12.682Z,31.02
